createdAt,value
2022-10-05T00:00:23.956Z,10.46
2022-10-05T00:01:23.966Z,10.31
2022-10-05T00:02:23.898Z,10.34
2022-10-05T00:03:23.718Z,10.41
2022-10-05T00:04:23.639Z,10.46
2022-10-05T00:05:23.665Z,10.40
2022-10-05T00:06:23.473Z,10.49
2022-10-05T00:07:23.397Z,10.34
2022-10-05T00:08:23.313Z,10.41
2022-10-05T00:09:23.234Z,10.36
2022-10-05T00:10:23.170Z,10.23
2022-10-05T00:11:23.073Z,10.22
2022-10-05T00:12:23.041Z,10.36
2022-10-05T00:13:22.918Z,10.41
2022-10-05T00:14:22.835Z,10.44
2022-10-05T00:15:22.750Z,10.56
2022-10-05T00:16:22.694Z,10.56
2022-10-05T00:17:22.588Z,10.43
2022-10-05T00:18:22.507Z,10.55
2022-10-05T00:19:22.428Z,10.53
2022-10-05T00:20:22.361Z,10.59
2022-10-05T00:21:22.267Z,10.51
2022-10-05T00:22:22.184Z,10.47
2022-10-05T00:23:22.104Z,10.55
2022-10-05T00:24:22.023Z,10.53
2022-10-05T00:25:21.946Z,10.43
2022-10-05T00:26:21.882Z,10.43
2022-10-05T00:27:21.783Z,10.40
2022-10-05T00:28:21.802Z,10.46
2022-10-05T00:29:21.621Z,10.43
2022-10-05T00:30:21.539Z,10.56
2022-10-05T00:31:21.528Z,10.49
2022-10-05T00:32:21.378Z,10.60
2022-10-05T00:33:21.301Z,10.58
2022-10-05T00:34:21.222Z,10.63
2022-10-05T00:35:21.138Z,10.56
2022-10-05T00:36:21.055Z,10.63
2022-10-05T00:37:20.977Z,10.69
2022-10-05T00:38:20.897Z,10.77
2022-10-05T00:39:20.817Z,10.78
2022-10-05T00:40:20.736Z,10.92
2022-10-05T00:41:20.658Z,10.92
2022-10-05T00:42:20.595Z,10.96
2022-10-05T00:43:20.495Z,10.99
2022-10-05T00:44:20.415Z,11.02
2022-10-05T00:45:20.333Z,10.96
2022-10-05T00:46:20.309Z,10.98
2022-10-05T00:47:20.172Z,10.81
2022-10-05T00:48:20.091Z,10.92
2022-10-05T00:49:20.012Z,10.83
2022-10-05T00:50:19.928Z,10.91
2022-10-05T00:51:19.849Z,10.95
2022-10-05T00:52:19.767Z,10.85
2022-10-05T00:53:19.691Z,10.85
2022-10-05T00:54:19.608Z,10.84
2022-10-05T00:55:19.527Z,10.81
2022-10-05T00:56:19.444Z,10.85
2022-10-05T00:57:19.365Z,10.85
2022-10-05T00:58:19.309Z,10.84
2022-10-05T00:59:19.206Z,10.96
2022-10-05T01:00:19.123Z,10.93
2022-10-05T01:01:19.081Z,10.93
2022-10-05T01:02:19.053Z,11.00
2022-10-05T01:03:18.886Z,10.95
2022-10-05T01:04:18.804Z,10.95
2022-10-05T01:05:18.723Z,10.98
2022-10-05T01:06:18.642Z,10.87
2022-10-05T01:07:18.564Z,10.81
2022-10-05T01:08:18.483Z,10.87
2022-10-05T01:09:18.402Z,10.83
2022-10-05T01:10:18.320Z,10.85
2022-10-05T01:11:18.242Z,10.78
2022-10-05T01:12:18.260Z,10.74
2022-10-05T01:13:18.082Z,10.74
2022-10-05T01:14:18.017Z,10.69
2022-10-05T01:15:18.019Z,10.69
2022-10-05T01:16:17.878Z,10.56
2022-10-05T01:17:17.758Z,10.59
2022-10-05T01:18:17.678Z,10.66
2022-10-05T01:19:17.598Z,10.55
2022-10-05T01:20:17.517Z,10.62
2022-10-05T01:21:17.440Z,10.66
2022-10-05T01:22:17.356Z,10.59
2022-10-05T01:23:17.276Z,10.56
2022-10-05T01:24:17.196Z,10.56
2022-10-05T01:25:17.118Z,10.49
2022-10-05T01:26:17.032Z,10.58
2022-10-05T01:27:16.963Z,10.58
2022-10-05T01:28:16.941Z,10.49
2022-10-05T01:29:16.793Z,10.51
2022-10-05T01:30:16.733Z,10.59
2022-10-05T01:31:16.729Z,10.43
2022-10-05T01:32:16.556Z,10.49
2022-10-05T01:33:16.471Z,10.46
2022-10-05T01:34:16.391Z,10.49
2022-10-05T01:35:16.312Z,10.33
2022-10-05T01:36:16.241Z,10.23
2022-10-05T01:37:16.147Z,10.26
2022-10-05T01:38:16.069Z,10.25
2022-10-05T01:39:15.987Z,10.16
2022-10-05T01:40:15.907Z,10.19
2022-10-05T01:41:15.832Z,10.25
2022-10-05T01:42:15.748Z,10.26
2022-10-05T01:43:15.868Z,10.29
2022-10-05T01:44:15.585Z,10.34
2022-10-05T01:45:15.506Z,10.29
2022-10-05T01:46:15.525Z,10.37
2022-10-05T01:47:15.344Z,10.33
2022-10-05T01:48:15.269Z,10.34
2022-10-05T01:49:15.200Z,10.40
2022-10-05T01:50:15.119Z,10.44
2022-10-05T01:51:15.026Z,10.39
2022-10-05T01:52:14.939Z,10.25
2022-10-05T01:53:14.861Z,10.29
2022-10-05T01:54:14.784Z,10.23
2022-10-05T01:55:14.701Z,10.21
2022-10-05T01:56:14.619Z,10.19
2022-10-05T01:57:14.537Z,10.25
2022-10-05T01:58:14.453Z,10.37
2022-10-05T01:59:14.377Z,10.37
2022-10-05T02:00:14.295Z,10.34
2022-10-05T02:01:14.292Z,10.39
2022-10-05T02:02:14.257Z,10.37
2022-10-05T02:03:14.055Z,10.36
2022-10-05T02:04:29.567Z,10.39
2022-10-05T02:05:13.889Z,10.33
2022-10-05T02:06:13.811Z,10.28
2022-10-05T02:07:13.731Z,10.36
2022-10-05T02:08:13.648Z,10.25
2022-10-05T02:09:13.569Z,10.31
2022-10-05T02:10:13.487Z,10.37
2022-10-05T02:11:13.410Z,10.47
2022-10-05T02:12:13.326Z,10.46
2022-10-05T02:13:13.245Z,10.43
2022-10-05T02:14:13.164Z,10.36
2022-10-05T02:15:13.086Z,10.37
2022-10-05T02:16:13.132Z,10.23
2022-10-05T02:17:12.944Z,10.29
2022-10-05T02:18:12.865Z,10.36
2022-10-05T02:19:12.760Z,10.26
2022-10-05T02:20:12.682Z,10.28
2022-10-05T02:21:12.601Z,10.28
2022-10-05T02:22:12.518Z,10.37
2022-10-05T02:23:12.442Z,10.34
2022-10-05T02:24:12.356Z,10.46
2022-10-05T02:25:12.275Z,10.40
2022-10-05T02:26:12.195Z,10.55
2022-10-05T02:27:12.119Z,10.55
2022-10-05T02:28:12.063Z,10.60
2022-10-05T02:29:11.955Z,10.55
2022-10-05T02:30:16.327Z,10.55
2022-10-05T02:31:11.833Z,10.58
2022-10-05T02:32:11.711Z,10.53
2022-10-05T02:33:11.633Z,10.56
2022-10-05T02:34:11.571Z,10.53
2022-10-05T02:35:11.472Z,10.53
2022-10-05T02:36:11.389Z,10.56
2022-10-05T02:37:11.307Z,10.56
2022-10-05T02:38:11.229Z,10.51
2022-10-05T02:39:11.149Z,10.60
2022-10-05T02:40:11.066Z,10.62
2022-10-05T02:41:10.985Z,10.58
2022-10-05T02:42:10.905Z,10.60
2022-10-05T02:43:10.824Z,10.56
2022-10-05T02:44:10.744Z,10.53
2022-10-05T02:45:10.668Z,10.63
2022-10-05T02:46:10.626Z,10.46
2022-10-05T02:47:10.503Z,10.69
2022-10-05T02:48:10.420Z,10.71
2022-10-05T02:49:10.347Z,10.71
2022-10-05T02:50:10.279Z,10.65
2022-10-05T02:51:10.181Z,10.55
2022-10-05T02:52:10.097Z,10.71
2022-10-05T02:53:10.020Z,10.58
2022-10-05T02:54:09.936Z,10.69
2022-10-05T02:55:09.857Z,10.60
2022-10-05T02:56:09.776Z,10.60
2022-10-05T02:57:09.699Z,10.62
2022-10-05T02:58:09.616Z,10.55
2022-10-05T02:59:09.534Z,10.59
2022-10-05T03:00:09.457Z,10.59
2022-10-05T03:01:09.950Z,10.43
2022-10-05T03:02:09.378Z,10.33
2022-10-05T03:03:09.214Z,10.43
2022-10-05T03:04:09.132Z,10.36
2022-10-05T03:05:09.052Z,10.33
2022-10-05T03:06:08.990Z,10.23
2022-10-05T03:07:08.890Z,10.31
2022-10-05T03:08:08.814Z,10.41
2022-10-05T03:09:08.728Z,10.46
2022-10-05T03:10:08.651Z,10.37
2022-10-05T03:11:08.569Z,10.39
2022-10-05T03:12:08.488Z,10.34
2022-10-05T03:13:08.409Z,10.10
2022-10-05T03:14:08.328Z,10.19
2022-10-05T03:15:08.248Z,10.25
2022-10-05T03:16:08.290Z,10.11
2022-10-05T03:17:08.085Z,10.25
2022-10-05T03:18:08.005Z,10.21
2022-10-05T03:19:07.928Z,10.07
2022-10-05T03:20:07.841Z,10.08
2022-10-05T03:21:07.765Z,10.10
2022-10-05T03:22:07.707Z,10.16
2022-10-05T03:23:07.602Z,10.21
2022-10-05T03:24:07.521Z,10.19
2022-10-05T03:25:07.440Z,10.08
2022-10-05T03:26:07.359Z,10.10
2022-10-05T03:27:07.279Z,10.13
2022-10-05T03:28:07.229Z,10.28
2022-10-05T03:29:07.123Z,10.34
2022-10-05T03:30:07.040Z,10.28
2022-10-05T03:31:07.001Z,10.39
2022-10-05T03:32:06.874Z,10.40
2022-10-05T03:33:06.795Z,10.53
2022-10-05T03:34:06.714Z,10.53
2022-10-05T03:35:06.633Z,10.44
2022-10-05T03:36:06.550Z,10.41
2022-10-05T03:37:06.572Z,10.49
2022-10-05T03:38:06.408Z,10.62
2022-10-05T03:39:06.318Z,10.56
2022-10-05T03:40:06.230Z,10.53
2022-10-05T03:41:06.153Z,10.44
2022-10-05T03:42:06.069Z,10.39
2022-10-05T03:43:05.989Z,10.37
2022-10-05T03:44:05.908Z,10.34
2022-10-05T03:45:05.829Z,10.23
2022-10-05T03:46:05.889Z,10.44
2022-10-05T03:47:05.669Z,10.40
2022-10-05T03:48:05.588Z,10.58
2022-10-05T03:49:05.506Z,10.43
2022-10-05T03:50:05.429Z,10.39
2022-10-05T03:51:05.346Z,10.36
2022-10-05T03:52:05.264Z,10.36
2022-10-05T03:53:05.183Z,10.29
2022-10-05T03:54:05.121Z,10.25
2022-10-05T03:55:05.024Z,10.26
2022-10-05T03:56:04.941Z,10.22
2022-10-05T03:57:04.862Z,10.22
2022-10-05T03:58:04.781Z,10.34
2022-10-05T03:59:04.700Z,10.25
2022-10-05T04:00:04.617Z,10.26
2022-10-05T04:01:04.541Z,10.23
2022-10-05T04:02:04.463Z,10.25
2022-10-05T04:03:04.378Z,10.28
2022-10-05T04:04:04.297Z,10.19
2022-10-05T04:05:04.216Z,10.18
2022-10-05T04:06:04.287Z,10.16
2022-10-05T04:07:04.056Z,10.15
2022-10-05T04:08:03.975Z,10.15
2022-10-05T04:09:03.898Z,10.11
2022-10-05T04:10:03.832Z,10.04
2022-10-05T04:11:03.734Z,10.01
2022-10-05T04:12:03.650Z,10.15
2022-10-05T04:13:03.570Z,10.03
2022-10-05T04:14:03.490Z,10.04
2022-10-05T04:15:03.410Z,10.06
2022-10-05T04:16:03.425Z,10.01
2022-10-05T04:17:03.348Z,10.00
2022-10-05T04:18:03.181Z,10.03
2022-10-05T04:19:03.087Z,10.06
2022-10-05T04:20:03.009Z,10.03
2022-10-05T04:21:02.948Z,10.01
2022-10-05T04:22:02.845Z,10.03
2022-10-05T04:23:02.761Z,10.06
2022-10-05T04:24:02.683Z,10.28
2022-10-05T04:25:02.608Z,10.25
2022-10-05T04:26:02.582Z,10.33
2022-10-05T04:27:02.439Z,10.28
2022-10-05T04:28:02.441Z,10.36
2022-10-05T04:29:02.280Z,10.31
2022-10-05T04:30:02.201Z,10.11
2022-10-05T04:31:02.171Z,10.22
2022-10-05T04:32:02.038Z,10.23
2022-10-05T04:33:01.957Z,10.22
2022-10-05T04:34:01.877Z,10.23
2022-10-05T04:35:01.794Z,10.28
2022-10-05T04:36:01.712Z,10.36
2022-10-05T04:37:01.632Z,10.34
2022-10-05T04:38:01.554Z,10.47
2022-10-05T04:39:01.473Z,10.47
2022-10-05T04:40:01.391Z,10.56
2022-10-05T04:41:01.308Z,10.71
2022-10-05T04:42:01.264Z,10.69
2022-10-05T04:43:01.148Z,10.98
2022-10-05T04:44:01.068Z,11.05
2022-10-05T04:45:00.986Z,11.03
2022-10-05T04:46:00.907Z,11.14
2022-10-05T04:47:00.930Z,11.21
2022-10-05T04:48:00.744Z,11.31
2022-10-05T04:49:00.665Z,11.35
2022-10-05T04:50:00.585Z,11.36
2022-10-05T04:51:00.502Z,11.36
2022-10-05T04:52:00.425Z,11.34
2022-10-05T04:53:00.342Z,11.28
2022-10-05T04:54:00.263Z,11.32
2022-10-05T04:55:00.182Z,11.35
2022-10-05T04:56:00.100Z,11.47
2022-10-05T04:57:00.021Z,11.42
2022-10-05T04:57:59.957Z,11.54
2022-10-05T04:58:59.859Z,11.54
2022-10-05T04:59:59.778Z,11.59
2022-10-05T05:00:59.741Z,11.69
2022-10-05T05:01:59.619Z,11.60
2022-10-05T05:02:59.538Z,11.67
2022-10-05T05:03:59.627Z,11.94
2022-10-05T05:04:59.377Z,12.00
2022-10-05T05:06:16.336Z,11.95
2022-10-05T05:06:59.216Z,11.97
2022-10-05T05:07:59.136Z,11.95
2022-10-05T05:08:59.056Z,12.09
2022-10-05T05:09:58.981Z,11.97
2022-10-05T05:10:58.898Z,11.97
2022-10-05T05:11:58.818Z,11.87
2022-10-05T05:12:58.735Z,11.74
2022-10-05T05:13:58.677Z,11.78
2022-10-05T05:14:58.575Z,11.79
2022-10-05T05:15:58.527Z,11.72
2022-10-05T05:16:58.418Z,11.78
2022-10-05T05:17:58.338Z,11.79
2022-10-05T05:18:58.297Z,11.87
2022-10-05T05:19:58.178Z,12.00
2022-10-05T05:20:58.097Z,12.02
2022-10-05T05:21:58.021Z,12.13
2022-10-05T05:22:57.937Z,12.13
2022-10-05T05:23:57.858Z,12.19
2022-10-05T05:24:57.778Z,12.19
2022-10-05T05:25:57.699Z,12.16
2022-10-05T05:26:57.620Z,12.21
2022-10-05T05:27:57.585Z,12.08
2022-10-05T05:28:57.459Z,12.16
2022-10-05T05:29:57.398Z,12.23
2022-10-05T05:30:57.318Z,12.39
2022-10-05T05:31:57.219Z,12.49
2022-10-05T05:32:57.139Z,12.59
2022-10-05T05:33:57.061Z,12.55
2022-10-05T05:34:56.980Z,12.51
2022-10-05T05:35:56.902Z,12.48
2022-10-05T05:36:56.822Z,12.51
2022-10-05T05:37:56.741Z,12.56
2022-10-05T05:38:56.862Z,12.67
2022-10-05T05:39:56.582Z,12.63
2022-10-05T05:40:56.501Z,12.67
2022-10-05T05:41:56.425Z,12.78
2022-10-05T05:42:56.344Z,12.73
2022-10-05T05:43:56.263Z,12.74
2022-10-05T05:44:56.440Z,12.84
2022-10-05T05:45:56.123Z,12.84
2022-10-05T05:47:03.982Z,12.73
2022-10-05T05:47:55.945Z,12.64
2022-10-05T05:48:55.871Z,12.66
2022-10-05T05:49:55.787Z,12.70
2022-10-05T05:50:55.706Z,12.82
2022-10-05T05:51:55.628Z,12.88
2022-10-05T05:52:55.547Z,12.92
2022-10-05T05:53:55.467Z,12.91
2022-10-05T05:54:55.390Z,12.88
2022-10-05T05:55:55.310Z,12.86
2022-10-05T05:56:55.234Z,12.92
2022-10-05T05:57:55.154Z,12.86
2022-10-05T05:58:55.172Z,12.81
2022-10-05T05:59:54.994Z,12.81
2022-10-05T06:00:54.912Z,12.96
2022-10-05T06:01:54.972Z,12.79
2022-10-05T06:02:54.928Z,12.77
2022-10-05T06:03:54.677Z,12.81
2022-10-05T06:04:54.597Z,12.82
2022-10-05T06:05:54.521Z,12.82
2022-10-05T06:06:54.438Z,12.86
2022-10-05T06:07:54.360Z,12.81
2022-10-05T06:08:54.280Z,12.82
2022-10-05T06:09:54.202Z,12.85
2022-10-05T06:10:54.121Z,12.88
2022-10-05T06:11:54.042Z,12.85
2022-10-05T06:12:56.420Z,12.86
2022-10-05T06:13:53.888Z,12.85
2022-10-05T06:14:53.806Z,13.02
2022-10-05T06:15:53.798Z,13.00
2022-10-05T06:16:53.768Z,13.04
2022-10-05T06:17:53.586Z,13.09
2022-10-05T06:18:53.489Z,13.11
2022-10-05T06:19:53.410Z,13.09
2022-10-05T06:20:53.328Z,13.11
2022-10-05T06:21:53.252Z,13.11
2022-10-05T06:22:53.321Z,13.22
2022-10-05T06:23:53.092Z,13.17
2022-10-05T06:24:53.011Z,13.15
2022-10-05T06:25:52.935Z,13.06
2022-10-05T06:26:52.853Z,13.04
2022-10-05T06:27:52.818Z,13.04
2022-10-05T06:28:52.697Z,13.09
2022-10-05T06:29:52.622Z,13.11
2022-10-05T06:30:52.541Z,13.18
2022-10-05T06:31:57.917Z,13.17
2022-10-05T06:32:52.382Z,13.19
2022-10-05T06:33:52.323Z,13.22
2022-10-05T06:34:52.224Z,13.18
2022-10-05T06:35:52.145Z,13.18
2022-10-05T06:36:52.067Z,13.14
2022-10-05T06:37:51.988Z,13.18
2022-10-05T06:38:51.911Z,13.24
2022-10-05T06:39:51.831Z,13.18
2022-10-05T06:40:51.753Z,13.14
2022-10-05T06:41:51.674Z,13.11
2022-10-05T06:42:51.594Z,13.22
2022-10-05T06:43:51.516Z,13.24
2022-10-05T06:44:51.436Z,13.19
2022-10-05T06:45:51.438Z,13.28
2022-10-05T06:46:51.279Z,13.28
2022-10-05T06:47:51.201Z,13.29
2022-10-05T06:48:51.124Z,13.41
2022-10-05T06:49:51.084Z,13.45
2022-10-05T06:50:50.970Z,13.45
2022-10-05T06:51:50.890Z,13.55
2022-10-05T06:52:50.808Z,13.48
2022-10-05T06:53:50.728Z,13.44
2022-10-05T06:54:50.800Z,13.47
2022-10-05T06:55:50.572Z,13.48
2022-10-05T06:56:50.490Z,13.44
2022-10-05T06:57:50.413Z,13.48
2022-10-05T06:58:50.335Z,13.44
2022-10-05T06:59:50.258Z,13.43
2022-10-05T07:00:50.204Z,13.44
2022-10-05T07:01:50.713Z,13.36
2022-10-05T07:02:50.019Z,13.44
2022-10-05T07:03:49.940Z,13.45
2022-10-05T07:04:49.858Z,13.45
2022-10-05T07:05:49.803Z,13.48
2022-10-05T07:06:49.711Z,13.52
2022-10-05T07:07:49.626Z,13.44
2022-10-05T07:08:49.546Z,13.45
2022-10-05T07:09:49.472Z,13.41
2022-10-05T07:10:49.390Z,13.40
2022-10-05T07:11:55.287Z,13.36
2022-10-05T07:12:49.232Z,13.37
2022-10-05T07:13:49.161Z,13.25
2022-10-05T07:14:49.079Z,13.32
2022-10-05T07:15:49.028Z,13.28
2022-10-05T07:16:49.128Z,13.27
2022-10-05T07:17:48.842Z,13.36
2022-10-05T07:18:48.772Z,13.38
2022-10-05T07:19:48.686Z,13.43
2022-10-05T07:20:49.410Z,13.41
2022-10-05T07:21:49.068Z,13.41
2022-10-05T07:22:48.450Z,13.45
2022-10-05T07:23:48.371Z,13.52
2022-10-05T07:24:48.294Z,13.55
2022-10-05T07:25:48.219Z,13.52
2022-10-05T07:26:48.447Z,13.52
2022-10-05T07:27:50.975Z,13.62
2022-10-05T07:28:47.982Z,13.62
2022-10-05T07:29:47.905Z,13.73
2022-10-05T07:30:47.881Z,13.80
2022-10-05T07:31:47.748Z,13.81
2022-10-05T07:32:47.669Z,13.89
2022-10-05T07:33:47.591Z,13.89
2022-10-05T07:34:47.514Z,13.98
2022-10-05T07:35:47.436Z,14.11
2022-10-05T07:36:52.211Z,14.11
2022-10-05T07:37:47.299Z,14.20
2022-10-05T07:38:47.202Z,14.20
2022-10-05T07:40:01.380Z,14.17
2022-10-05T07:40:47.046Z,14.17
2022-10-05T07:41:46.970Z,14.29
2022-10-05T07:42:51.816Z,14.36
2022-10-05T07:44:03.313Z,14.31
2022-10-05T07:44:46.734Z,14.29
2022-10-05T07:45:46.773Z,14.29
2022-10-05T07:46:47.038Z,14.39
2022-10-05T07:47:46.500Z,14.34
2022-10-05T07:48:46.425Z,14.35
2022-10-05T07:49:46.343Z,14.44
2022-10-05T07:50:46.265Z,14.39
2022-10-05T07:51:46.189Z,14.39
2022-10-05T07:52:46.110Z,14.52
2022-10-05T07:53:46.061Z,14.50
2022-10-05T07:54:45.956Z,14.47
2022-10-05T07:55:45.877Z,14.50
2022-10-05T07:56:46.098Z,14.50
2022-10-05T07:57:45.721Z,14.49
2022-10-05T07:58:45.643Z,14.44
2022-10-05T07:59:45.567Z,14.52
2022-10-05T08:00:45.487Z,14.53
2022-10-05T08:01:45.476Z,14.52
2022-10-05T08:02:45.400Z,14.61
2022-10-05T08:03:45.255Z,14.59
2022-10-05T08:04:45.173Z,14.68
2022-10-05T08:05:45.099Z,14.61
2022-10-05T08:06:45.326Z,14.69
2022-10-05T08:07:44.942Z,14.68
2022-10-05T08:08:44.865Z,14.71
2022-10-05T08:09:44.811Z,14.71
2022-10-05T08:10:44.709Z,14.74
2022-10-05T08:11:44.976Z,14.74
2022-10-05T08:12:44.553Z,14.69
2022-10-05T08:13:44.479Z,14.74
2022-10-05T08:14:44.400Z,14.67
2022-10-05T08:15:44.353Z,14.75
2022-10-05T08:16:44.245Z,14.78
2022-10-05T08:17:44.168Z,14.79
2022-10-05T08:18:44.090Z,14.83
2022-10-05T08:19:44.015Z,14.88
2022-10-05T08:20:43.935Z,14.85
2022-10-05T08:21:43.897Z,14.87
2022-10-05T08:22:43.782Z,14.87
2022-10-05T08:23:43.706Z,14.97
2022-10-05T08:24:43.625Z,15.05
2022-10-05T08:25:43.568Z,15.01
2022-10-05T08:26:43.472Z,15.15
2022-10-05T08:27:43.396Z,15.15
2022-10-05T08:28:43.320Z,15.21
2022-10-05T08:29:43.244Z,15.15
2022-10-05T08:30:43.163Z,15.20
2022-10-05T08:31:43.086Z,15.23
2022-10-05T08:32:43.011Z,15.39
2022-10-05T08:33:42.931Z,15.31
2022-10-05T08:34:42.856Z,15.45
2022-10-05T08:35:42.777Z,15.60
2022-10-05T08:36:42.703Z,15.60
2022-10-05T08:37:42.623Z,15.63
2022-10-05T08:38:42.547Z,15.71
2022-10-05T08:39:42.470Z,15.73
2022-10-05T08:40:42.393Z,15.70
2022-10-05T08:41:42.569Z,15.73
2022-10-05T08:42:42.240Z,15.88
2022-10-05T08:43:42.163Z,15.86
2022-10-05T08:44:42.087Z,15.89
2022-10-05T08:45:42.168Z,15.92
2022-10-05T08:46:42.018Z,15.94
2022-10-05T08:47:41.856Z,16.01
2022-10-05T08:48:41.778Z,16.00
2022-10-05T08:49:41.701Z,16.08
2022-10-05T08:50:41.626Z,15.99
2022-10-05T08:51:41.549Z,16.04
2022-10-05T08:52:41.473Z,16.00
2022-10-05T08:53:41.396Z,16.04
2022-10-05T08:54:41.417Z,15.99
2022-10-05T08:55:41.241Z,16.01
2022-10-05T08:56:41.170Z,16.10
2022-10-05T08:57:41.106Z,16.08
2022-10-05T08:58:41.020Z,16.07
2022-10-05T08:59:40.936Z,16.12
2022-10-05T09:00:40.861Z,16.20
2022-10-05T09:01:40.863Z,16.23
2022-10-05T09:02:40.758Z,16.34
2022-10-05T09:03:40.626Z,16.33
2022-10-05T09:04:40.551Z,16.30
2022-10-05T09:05:40.475Z,16.34
2022-10-05T09:06:40.399Z,16.33
2022-10-05T09:07:40.528Z,16.37
2022-10-05T09:08:40.245Z,16.50
2022-10-05T09:09:40.168Z,16.52
2022-10-05T09:10:40.243Z,16.57
2022-10-05T09:11:40.021Z,16.60
2022-10-05T09:12:39.938Z,16.55
2022-10-05T09:13:39.882Z,16.55
2022-10-05T09:14:39.783Z,16.55
2022-10-05T09:15:39.783Z,16.62
2022-10-05T09:16:39.631Z,16.63
2022-10-05T09:17:39.609Z,16.60
2022-10-05T09:18:39.478Z,16.56
2022-10-05T09:19:39.402Z,16.62
2022-10-05T09:20:39.327Z,16.59
2022-10-05T09:21:39.249Z,16.63
2022-10-05T09:22:39.174Z,16.63
2022-10-05T09:23:39.096Z,16.62
2022-10-05T09:24:39.020Z,16.74
2022-10-05T09:25:38.947Z,16.78
2022-10-05T09:26:38.866Z,16.82
2022-10-05T09:27:38.794Z,16.78
2022-10-05T09:28:38.802Z,16.88
2022-10-05T09:29:38.655Z,16.84
2022-10-05T09:30:38.626Z,17.10
2022-10-05T09:31:38.480Z,17.21
2022-10-05T09:32:38.405Z,17.21
2022-10-05T09:33:38.333Z,17.17
2022-10-05T09:34:38.270Z,17.26
2022-10-05T09:35:38.177Z,17.25
2022-10-05T09:36:38.101Z,17.32
2022-10-05T09:37:38.024Z,17.44
2022-10-05T09:38:37.950Z,17.38
2022-10-05T09:39:37.872Z,17.43
2022-10-05T09:40:37.797Z,17.57
2022-10-05T09:41:37.719Z,17.66
2022-10-05T09:42:37.644Z,17.69
2022-10-05T09:43:37.567Z,17.67
2022-10-05T09:44:37.490Z,17.76
2022-10-05T09:45:37.429Z,17.82
2022-10-05T09:46:37.390Z,17.91
2022-10-05T09:47:37.261Z,17.98
2022-10-05T09:48:37.189Z,18.04
2022-10-05T09:49:37.111Z,18.19
2022-10-05T09:50:37.036Z,18.09
2022-10-05T09:51:36.960Z,18.21
2022-10-05T09:52:36.892Z,18.24
2022-10-05T09:53:36.809Z,18.14
2022-10-05T09:54:36.882Z,18.18
2022-10-05T09:55:36.656Z,18.37
2022-10-05T09:56:36.583Z,18.25
2022-10-05T09:57:36.506Z,18.19
2022-10-05T09:58:36.430Z,18.25
2022-10-05T09:59:36.352Z,18.21
2022-10-05T10:00:36.278Z,18.21
2022-10-05T10:01:36.550Z,18.21
2022-10-05T10:02:36.233Z,18.27
2022-10-05T10:03:36.093Z,18.29
2022-10-05T10:04:35.997Z,18.29
2022-10-05T10:05:35.897Z,18.18
2022-10-05T10:06:35.826Z,18.35
2022-10-05T10:07:35.746Z,18.35
2022-10-05T10:08:35.674Z,18.40
2022-10-05T10:09:38.696Z,18.46
2022-10-05T10:10:35.521Z,18.50
2022-10-05T10:11:35.445Z,18.55
2022-10-05T10:12:35.370Z,18.57
2022-10-05T10:13:35.294Z,18.53
2022-10-05T10:14:35.225Z,18.49
2022-10-05T10:15:35.197Z,18.49
2022-10-05T10:16:35.069Z,18.40
2022-10-05T10:17:35.010Z,18.57
2022-10-05T10:18:35.218Z,18.65
2022-10-05T10:19:34.842Z,18.79
2022-10-05T10:20:34.766Z,18.90
2022-10-05T10:21:34.693Z,18.90
2022-10-05T10:22:34.616Z,18.84
2022-10-05T10:23:34.541Z,18.87
2022-10-05T10:24:34.465Z,18.92
2022-10-05T10:25:34.389Z,18.82
2022-10-05T10:26:34.318Z,18.79
2022-10-05T10:27:34.238Z,18.83
2022-10-05T10:28:34.218Z,18.92
2022-10-05T10:29:34.089Z,19.05
2022-10-05T10:30:36.427Z,19.38
2022-10-05T10:31:33.940Z,19.65
2022-10-05T10:32:33.867Z,19.68
2022-10-05T10:33:34.059Z,19.51
2022-10-05T10:34:33.715Z,19.32
2022-10-05T10:35:33.648Z,19.27
2022-10-05T10:36:33.569Z,19.25
2022-10-05T10:37:33.494Z,19.24
2022-10-05T10:38:33.419Z,19.21
2022-10-05T10:39:33.343Z,19.25
2022-10-05T10:40:33.273Z,19.42
2022-10-05T10:41:33.194Z,19.42
2022-10-05T10:42:33.124Z,19.48
2022-10-05T10:43:33.046Z,19.51
2022-10-05T10:44:32.974Z,19.65
2022-10-05T10:45:32.904Z,19.69
2022-10-05T10:46:32.860Z,19.63
2022-10-05T10:47:32.765Z,19.63
2022-10-05T10:48:32.676Z,19.58
2022-10-05T10:49:32.624Z,19.64
2022-10-05T10:50:32.579Z,19.63
2022-10-05T10:51:32.455Z,19.31
2022-10-05T10:52:32.408Z,19.25
2022-10-05T10:53:32.307Z,19.36
2022-10-05T10:54:32.232Z,19.54
2022-10-05T10:55:32.206Z,19.72
2022-10-05T10:56:32.085Z,19.95
2022-10-05T10:57:32.011Z,20.08
2022-10-05T10:58:32.050Z,20.19
2022-10-05T10:59:31.948Z,20.38
2022-10-05T11:00:31.791Z,20.54
2022-10-05T11:01:31.777Z,20.75
2022-10-05T11:02:31.741Z,20.83
2022-10-05T11:03:31.568Z,21.09
2022-10-05T11:04:31.501Z,21.27
2022-10-05T11:05:31.491Z,21.64
2022-10-05T11:07:48.860Z,21.97
2022-10-05T11:08:48.789Z,21.63
2022-10-05T11:09:48.718Z,21.92
2022-10-05T11:10:48.649Z,22.00
2022-10-05T11:11:48.839Z,22.41
2022-10-05T11:12:48.503Z,22.49
2022-10-05T11:13:48.431Z,22.20
2022-10-05T11:14:48.364Z,21.91
2022-10-05T11:15:48.364Z,21.60
2022-10-05T11:16:48.577Z,21.33
2022-10-05T11:17:48.145Z,21.36
2022-10-05T11:18:48.073Z,21.35
2022-10-05T11:20:04.704Z,21.27
2022-10-05T11:20:47.957Z,21.20
2022-10-05T11:21:47.860Z,21.27
2022-10-05T11:22:47.787Z,21.61
2022-10-05T11:23:47.715Z,21.98
2022-10-05T11:24:47.646Z,21.98
2022-10-05T11:25:47.573Z,21.92
2022-10-05T11:26:47.827Z,21.89
2022-10-05T11:27:47.431Z,21.70
2022-10-05T11:28:47.363Z,21.56
2022-10-05T11:29:47.291Z,21.46
2022-10-05T11:30:50.386Z,21.29
2022-10-05T11:31:47.761Z,21.26
2022-10-05T11:32:47.078Z,21.29
2022-10-05T11:33:47.040Z,21.30
2022-10-05T11:34:46.938Z,21.36
2022-10-05T11:35:46.859Z,21.49
2022-10-05T11:36:46.820Z,21.60
2022-10-05T11:37:46.723Z,21.67
2022-10-05T11:38:46.650Z,21.63
2022-10-05T11:39:46.577Z,21.86
2022-10-05T11:40:46.505Z,21.98
2022-10-05T11:41:46.801Z,21.67
2022-10-05T11:42:46.364Z,21.75
2022-10-05T11:43:46.290Z,21.84
2022-10-05T11:44:46.219Z,22.00
2022-10-05T11:45:46.148Z,22.30
2022-10-05T11:46:46.244Z,22.32
2022-10-05T11:47:46.006Z,22.31
2022-10-05T11:48:45.939Z,22.22
2022-10-05T11:49:45.867Z,22.65
2022-10-05T11:50:45.798Z,23.27
2022-10-05T11:51:46.137Z,23.48
2022-10-05T11:52:45.676Z,23.60
2022-10-05T11:53:45.586Z,23.52
2022-10-05T11:55:09.411Z,23.65
2022-10-05T11:55:45.444Z,23.53
2022-10-05T11:56:46.776Z,23.49
2022-10-05T11:57:45.311Z,23.56
2022-10-05T11:58:45.240Z,23.56
2022-10-05T11:59:45.169Z,23.97
2022-10-05T12:00:45.105Z,23.85
2022-10-05T12:01:45.187Z,24.42
2022-10-05T12:02:45.068Z,24.83
2022-10-05T12:03:45.034Z,24.95
2022-10-05T12:04:44.828Z,25.19
2022-10-05T12:05:44.960Z,25.15
2022-10-05T12:07:37.191Z,25.71
2022-10-05T12:08:37.149Z,26.04
2022-10-05T12:10:49.571Z,25.64
2022-10-05T12:11:49.509Z,25.83
2022-10-05T12:12:49.437Z,25.42
2022-10-05T12:13:49.371Z,25.99
2022-10-05T12:14:49.308Z,26.90
2022-10-05T12:15:49.339Z,26.75
2022-10-05T12:16:49.786Z,26.25
2022-10-05T12:17:49.112Z,26.46
2022-10-05T12:18:49.044Z,26.69
2022-10-05T12:19:53.019Z,27.27
2022-10-05T12:20:48.916Z,27.35
2022-10-05T12:21:49.258Z,27.38
2022-10-05T12:22:48.790Z,27.34
2022-10-05T12:23:49.351Z,27.31
2022-10-05T12:24:51.281Z,27.27
2022-10-05T12:25:48.598Z,26.95
2022-10-05T12:26:48.533Z,27.17
2022-10-05T12:27:48.471Z,27.50
2022-10-05T12:28:48.405Z,26.68
2022-10-05T12:29:48.343Z,26.09
2022-10-05T12:30:48.280Z,25.84
2022-10-05T12:31:48.275Z,25.82
2022-10-05T12:32:48.152Z,26.21
2022-10-05T12:33:48.092Z,26.38
2022-10-05T12:34:48.027Z,26.30
2022-10-05T12:35:49.124Z,26.21
2022-10-05T12:37:03.628Z,26.09
2022-10-05T12:37:47.836Z,26.40
2022-10-05T12:38:47.774Z,26.94
2022-10-05T12:39:47.738Z,26.72
2022-10-05T12:42:00.170Z,26.82
2022-10-05T12:43:00.103Z,27.07
2022-10-05T12:44:00.038Z,26.67
2022-10-05T12:45:00.242Z,26.77
2022-10-05T12:45:59.973Z,27.12
2022-10-05T12:46:59.855Z,26.84
2022-10-05T12:47:59.792Z,26.49
2022-10-05T12:48:59.727Z,26.62
2022-10-05T12:49:59.666Z,26.23
2022-10-05T12:50:59.604Z,25.90
2022-10-05T12:51:59.538Z,25.94
2022-10-05T12:52:59.478Z,25.75
2022-10-05T12:53:59.413Z,25.83
2022-10-05T12:54:59.416Z,25.57
2022-10-05T12:55:59.288Z,25.47